sensor_id;sensor_type;location;lat;lon;timestamp;P1;durP1;ratioP1;P2;durP2;ratioP2
7306;SDS011;3694;48.732;9.248;2022-09-03T00:00:58;2.03;;;1.67;;
7306;SDS011;3694;48.732;9.248;2022-09-03T00:03:26;1.50;;;1.13;;
7306;SDS011;3694;48.732;9.248;2022-09-03T00:06:24;3.77;;;1.60;;
7306;SDS011;3694;48.732;9.248;2022-09-03T00:11:47;1.83;;;1.33;;
7306;SDS011;3694;48.732;9.248;2022-09-03T00:14:18;1.50;;;1.27;;
7306;SDS011;3694;48.732;9.248;2022-09-03T00:16:50;3.00;;;1.33;;
7306;SDS011;3694;48.732;9.248;2022-09-03T00:19:59;1.40;;;1.10;;
7306;SDS011;3694;48.732;9.248;2022-09-03T00:22:27;2.13;;;1.20;;
7306;SDS011;3694;48.732;9.248;2022-09-03T00:25:01;1.37;;;1.23;;
7306;SDS011;3694;48.732;9.248;2022-09-03T00:27:30;1.50;;;1.23;;
7306;SDS011;3694;48.732;9.248;2022-09-03T00:30:02;1.27;;;1.17;;
7306;SDS011;3694;48.732;9.248;2022-09-03T00:32:36;1.63;;;1.30;;
7306;SDS011;3694;48.732;9.248;2022-09-03T00:35:22;1.43;;;1.33;;
7306;SDS011;3694;48.732;9.248;2022-09-03T00:37:52;3.10;;;1.23;;
7306;SDS011;3694;48.732;9.248;2022-09-03T00:51:45;1.50;;;1.20;;
7306;SDS011;3694;48.732;9.248;2022-09-03T01:05:13;1.57;;;1.33;;
7306;SDS011;3694;48.732;9.248;2022-09-03T01:13:35;1.33;;;1.10;;
7306;SDS011;3694;48.732;9.248;2022-09-03T01:16:20;1.57;;;1.37;;
7306;SDS011;3694;48.732;9.248;2022-09-03T01:24:29;1.40;;;1.27;;
7306;SDS011;3694;48.732;9.248;2022-09-03T01:30:08;2.20;;;1.30;;
7306;SDS011;3694;48.732;9.248;2022-09-03T01:35:43;1.93;;;1.40;;
7306;SDS011;3694;48.732;9.248;2022-09-03T01:38:38;2.20;;;1.37;;
7306;SDS011;3694;48.732;9.248;2022-09-03T01:41:19;2.63;;;1.30;;
7306;SDS011;3694;48.732;9.248;2022-09-03T01:44:24;1.43;;;1.33;;
7306;SDS011;3694;48.732;9.248;2022-09-03T01:47:15;1.93;;;1.60;;
7306;SDS011;3694;48.732;9.248;2022-09-03T01:58:29;1.63;;;1.53;;
7306;SDS011;3694;48.732;9.248;2022-09-03T02:01:06;1.30;;;1.20;;
7306;SDS011;3694;48.732;9.248;2022-09-03T02:03:39;2.73;;;1.40;;
7306;SDS011;3694;48.732;9.248;2022-09-03T02:06:09;1.57;;;1.30;;
7306;SDS011;3694;48.732;9.248;2022-09-03T02:08:35;2.33;;;1.33;;
7306;SDS011;3694;48.732;9.248;2022-09-03T02:11:02;2.50;;;1.10;;
7306;SDS011;3694;48.732;9.248;2022-09-03T02:13:34;2.10;;;1.20;;
7306;SDS011;3694;48.732;9.248;2022-09-03T02:16:05;2.83;;;1.67;;
7306;SDS011;3694;48.732;9.248;2022-09-03T02:18:58;2.03;;;1.47;;
7306;SDS011;3694;48.732;9.248;2022-09-03T02:21:30;1.60;;;1.50;;
7306;SDS011;3694;48.732;9.248;2022-09-03T02:23:59;1.93;;;1.50;;
7306;SDS011;3694;48.732;9.248;2022-09-03T02:26:25;2.40;;;1.33;;
7306;SDS011;3694;48.732;9.248;2022-09-03T02:28:52;1.40;;;1.30;;
7306;SDS011;3694;48.732;9.248;2022-09-03T02:31:19;2.83;;;1.40;;
7306;SDS011;3694;48.732;9.248;2022-09-03T02:33:46;2.10;;;1.57;;
7306;SDS011;3694;48.732;9.248;2022-09-03T02:36:14;1.60;;;1.40;;
7306;SDS011;3694;48.732;9.248;2022-09-03T02:38:43;3.03;;;2.03;;
7306;SDS011;3694;48.732;9.248;2022-09-03T02:41:10;1.73;;;1.57;;
7306;SDS011;3694;48.732;9.248;2022-09-03T02:43:48;2.83;;;1.70;;
7306;SDS011;3694;48.732;9.248;2022-09-03T02:46:21;2.40;;;1.60;;
7306;SDS011;3694;48.732;9.248;2022-09-03T02:48:51;3.37;;;1.70;;
7306;SDS011;3694;48.732;9.248;2022-09-03T02:51:17;1.43;;;1.33;;
7306;SDS011;3694;48.732;9.248;2022-09-03T02:53:43;2.07;;;1.60;;
7306;SDS011;3694;48.732;9.248;2022-09-03T02:56:09;1.93;;;1.60;;
7306;SDS011;3694;48.732;9.248;2022-09-03T02:58:35;2.20;;;1.70;;
7306;SDS011;3694;48.732;9.248;2022-09-03T03:01:01;2.03;;;1.70;;
7306;SDS011;3694;48.732;9.248;2022-09-03T03:03:27;3.33;;;1.70;;
7306;SDS011;3694;48.732;9.248;2022-09-03T03:05:54;1.93;;;1.80;;
7306;SDS011;3694;48.732;9.248;2022-09-03T03:08:22;3.10;;;1.80;;
7306;SDS011;3694;48.732;9.248;2022-09-03T03:10:51;1.90;;;1.70;;
7306;SDS011;3694;48.732;9.248;2022-09-03T03:13:20;3.93;;;1.93;;
7306;SDS011;3694;48.732;9.248;2022-09-03T03:15:46;2.00;;;1.80;;
7306;SDS011;3694;48.732;9.248;2022-09-03T03:18:12;3.70;;;1.90;;
7306;SDS011;3694;48.732;9.248;2022-09-03T03:20:39;3.47;;;2.10;;
7306;SDS011;3694;48.732;9.248;2022-09-03T03:23:05;2.17;;;1.83;;
7306;SDS011;3694;48.732;9.248;2022-09-03T03:25:32;1.90;;;1.80;;
7306;SDS011;3694;48.732;9.248;2022-09-03T03:27:59;1.77;;;1.67;;
7306;SDS011;3694;48.732;9.248;2022-09-03T03:30:25;3.10;;;2.07;;
7306;SDS011;3694;48.732;9.248;2022-09-03T03:32:54;2.63;;;1.70;;
7306;SDS011;3694;48.732;9.248;2022-09-03T03:35:20;2.13;;;1.73;;
7306;SDS011;3694;48.732;9.248;2022-09-03T03:37:46;4.30;;;2.20;;
7306;SDS011;3694;48.732;9.248;2022-09-03T03:40:12;2.53;;;1.93;;
7306;SDS011;3694;48.732;9.248;2022-09-03T03:42:38;1.93;;;1.80;;
7306;SDS011;3694;48.732;9.248;2022-09-03T03:45:04;3.23;;;2.00;;
7306;SDS011;3694;48.732;9.248;2022-09-03T03:47:30;2.80;;;2.17;;
7306;SDS011;3694;48.732;9.248;2022-09-03T03:49:56;2.10;;;1.90;;
7306;SDS011;3694;48.732;9.248;2022-09-03T03:52:22;2.10;;;2.00;;
7306;SDS011;3694;48.732;9.248;2022-09-03T03:54:48;1.97;;;1.80;;
7306;SDS011;3694;48.732;9.248;2022-09-03T03:57:14;4.27;;;2.00;;
7306;SDS011;3694;48.732;9.248;2022-09-03T03:59:40;3.90;;;2.43;;
7306;SDS011;3694;48.732;9.248;2022-09-03T04:02:05;2.60;;;1.87;;
7306;SDS011;3694;48.732;9.248;2022-09-03T04:04:31;3.43;;;1.83;;
7306;SDS011;3694;48.732;9.248;2022-09-03T04:06:57;2.03;;;1.80;;
7306;SDS011;3694;48.732;9.248;2022-09-03T04:09:22;2.23;;;1.90;;
7306;SDS011;3694;48.732;9.248;2022-09-03T04:11:48;1.90;;;1.80;;
7306;SDS011;3694;48.732;9.248;2022-09-03T04:14:14;1.87;;;1.70;;
7306;SDS011;3694;48.732;9.248;2022-09-03T04:16:41;2.57;;;2.10;;
7306;SDS011;3694;48.732;9.248;2022-09-03T04:19:10;2.73;;;2.10;;
7306;SDS011;3694;48.732;9.248;2022-09-03T04:21:36;2.70;;;2.10;;
7306;SDS011;3694;48.732;9.248;2022-09-03T04:24:02;2.60;;;1.73;;
7306;SDS011;3694;48.732;9.248;2022-09-03T04:26:29;2.20;;;1.93;;
7306;SDS011;3694;48.732;9.248;2022-09-03T04:28:57;2.27;;;2.00;;
7306;SDS011;3694;48.732;9.248;2022-09-03T04:31:28;2.10;;;1.97;;
7306;SDS011;3694;48.732;9.248;2022-09-03T04:33:53;2.27;;;2.07;;
7306;SDS011;3694;48.732;9.248;2022-09-03T04:36:20;4.60;;;2.23;;
7306;SDS011;3694;48.732;9.248;2022-09-03T04:38:48;1.70;;;1.60;;
7306;SDS011;3694;48.732;9.248;2022-09-03T04:41:16;1.83;;;1.60;;
7306;SDS011;3694;48.732;9.248;2022-09-03T04:43:43;1.90;;;1.80;;
7306;SDS011;3694;48.732;9.248;2022-09-03T04:46:10;2.90;;;2.03;;
7306;SDS011;3694;48.732;9.248;2022-09-03T04:48:37;2.40;;;2.20;;
7306;SDS011;3694;48.732;9.248;2022-09-03T04:51:04;6.20;;;2.03;;
7306;SDS011;3694;48.732;9.248;2022-09-03T04:53:35;2.23;;;2.03;;
7306;SDS011;3694;48.732;9.248;2022-09-03T04:56:02;2.63;;;2.10;;
7306;SDS011;3694;48.732;9.248;2022-09-03T04:58:35;3.23;;;1.90;;
7306;SDS011;3694;48.732;9.248;2022-09-03T05:01:06;2.00;;;1.90;;
7306;SDS011;3694;48.732;9.248;2022-09-03T05:03:32;1.97;;;1.80;;
7306;SDS011;3694;48.732;9.248;2022-09-03T05:05:58;2.73;;;2.03;;
7306;SDS011;3694;48.732;9.248;2022-09-03T05:08:24;2.17;;;1.90;;
7306;SDS011;3694;48.732;9.248;2022-09-03T05:10:56;2.67;;;1.87;;
7306;SDS011;3694;48.732;9.248;2022-09-03T05:13:24;2.47;;;2.27;;
7306;SDS011;3694;48.732;9.248;2022-09-03T05:15:50;3.37;;;2.13;;
7306;SDS011;3694;48.732;9.248;2022-09-03T05:18:15;2.30;;;2.10;;
7306;SDS011;3694;48.732;9.248;2022-09-03T05:20:40;2.10;;;1.77;;
7306;SDS011;3694;48.732;9.248;2022-09-03T05:23:06;3.07;;;2.20;;
7306;SDS011;3694;48.732;9.248;2022-09-03T05:25:32;4.93;;;2.27;;
7306;SDS011;3694;48.732;9.248;2022-09-03T05:27:58;2.30;;;2.10;;
7306;SDS011;3694;48.732;9.248;2022-09-03T05:30:24;2.20;;;2.00;;
7306;SDS011;3694;48.732;9.248;2022-09-03T05:32:50;2.10;;;1.90;;
7306;SDS011;3694;48.732;9.248;2022-09-03T05:35:16;3.80;;;2.00;;
7306;SDS011;3694;48.732;9.248;2022-09-03T05:37:42;3.27;;;2.20;;
7306;SDS011;3694;48.732;9.248;2022-09-03T05:40:08;4.70;;;2.00;;
7306;SDS011;3694;48.732;9.248;2022-09-03T05:42:35;4.03;;;1.87;;
7306;SDS011;3694;48.732;9.248;2022-09-03T05:45:02;2.40;;;2.20;;
7306;SDS011;3694;48.732;9.248;2022-09-03T05:47:34;3.07;;;2.10;;
7306;SDS011;3694;48.732;9.248;2022-09-03T05:50:01;3.77;;;2.00;;
7306;SDS011;3694;48.732;9.248;2022-09-03T05:52:26;3.70;;;2.00;;
7306;SDS011;3694;48.732;9.248;2022-09-03T05:54:52;2.23;;;2.03;;
7306;SDS011;3694;48.732;9.248;2022-09-03T05:57:17;2.77;;;2.23;;
7306;SDS011;3694;48.732;9.248;2022-09-03T05:59:43;1.93;;;1.83;;
7306;SDS011;3694;48.732;9.248;2022-09-03T06:02:08;4.10;;;1.90;;
7306;SDS011;3694;48.732;9.248;2022-09-03T06:04:34;3.57;;;2.00;;
7306;SDS011;3694;48.732;9.248;2022-09-03T06:06:59;2.63;;;1.90;;
7306;SDS011;3694;48.732;9.248;2022-09-03T06:09:25;3.20;;;2.20;;
7306;SDS011;3694;48.732;9.248;2022-09-03T06:11:50;3.23;;;2.03;;
7306;SDS011;3694;48.732;9.248;2022-09-03T06:14:17;2.27;;;2.10;;
7306;SDS011;3694;48.732;9.248;2022-09-03T06:16:44;3.00;;;2.70;;
7306;SDS011;3694;48.732;9.248;2022-09-03T06:19:13;2.20;;;2.10;;
7306;SDS011;3694;48.732;9.248;2022-09-03T06:21:40;4.20;;;2.13;;
7306;SDS011;3694;48.732;9.248;2022-09-03T06:24:07;4.03;;;2.70;;
7306;SDS011;3694;48.732;9.248;2022-09-03T06:26:35;2.27;;;2.00;;
7306;SDS011;3694;48.732;9.248;2022-09-03T06:29:01;2.53;;;2.20;;
7306;SDS011;3694;48.732;9.248;2022-09-03T06:31:27;2.67;;;2.20;;
7306;SDS011;3694;48.732;9.248;2022-09-03T06:33:52;4.87;;;2.47;;
7306;SDS011;3694;48.732;9.248;2022-09-03T06:36:19;2.87;;;2.30;;
7306;SDS011;3694;48.732;9.248;2022-09-03T06:38:46;2.63;;;2.33;;
7306;SDS011;3694;48.732;9.248;2022-09-03T06:41:15;3.90;;;2.23;;
7306;SDS011;3694;48.732;9.248;2022-09-03T06:43:45;2.43;;;2.10;;
7306;SDS011;3694;48.732;9.248;2022-09-03T06:46:12;3.77;;;2.30;;
7306;SDS011;3694;48.732;9.248;2022-09-03T06:48:40;3.07;;;2.43;;
7306;SDS011;3694;48.732;9.248;2022-09-03T06:51:08;2.47;;;2.30;;
7306;SDS011;3694;48.732;9.248;2022-09-03T06:53:36;2.57;;;2.37;;
7306;SDS011;3694;48.732;9.248;2022-09-03T06:56:07;2.63;;;2.43;;
7306;SDS011;3694;48.732;9.248;2022-09-03T06:58:38;3.03;;;2.40;;
7306;SDS011;3694;48.732;9.248;2022-09-03T07:01:08;3.13;;;2.40;;
7306;SDS011;3694;48.732;9.248;2022-09-03T07:03:34;3.03;;;2.70;;
7306;SDS011;3694;48.732;9.248;2022-09-03T07:06:01;4.33;;;2.23;;
7306;SDS011;3694;48.732;9.248;2022-09-03T07:08:29;4.33;;;2.60;;
7306;SDS011;3694;48.732;9.248;2022-09-03T07:10:56;3.43;;;2.73;;
7306;SDS011;3694;48.732;9.248;2022-09-03T07:13:24;5.20;;;2.60;;
7306;SDS011;3694;48.732;9.248;2022-09-03T07:16:00;4.07;;;2.77;;
7306;SDS011;3694;48.732;9.248;2022-09-03T07:18:29;6.20;;;3.10;;
7306;SDS011;3694;48.732;9.248;2022-09-03T07:21:03;2.67;;;2.40;;
7306;SDS011;3694;48.732;9.248;2022-09-03T07:23:31;5.10;;;2.50;;
7306;SDS011;3694;48.732;9.248;2022-09-03T07:25:58;3.10;;;2.80;;
7306;SDS011;3694;48.732;9.248;2022-09-03T07:28:25;3.20;;;2.50;;
7306;SDS011;3694;48.732;9.248;2022-09-03T07:30:51;6.57;;;2.50;;
7306;SDS011;3694;48.732;9.248;2022-09-03T07:33:18;7.30;;;2.57;;
7306;SDS011;3694;48.732;9.248;2022-09-03T07:35:44;5.70;;;2.53;;
7306;SDS011;3694;48.732;9.248;2022-09-03T07:38:10;2.83;;;2.50;;
7306;SDS011;3694;48.732;9.248;2022-09-03T07:40:40;4.43;;;2.27;;
7306;SDS011;3694;48.732;9.248;2022-09-03T07:43:06;2.70;;;2.50;;
7306;SDS011;3694;48.732;9.248;2022-09-03T07:45:31;3.70;;;2.60;;
7306;SDS011;3694;48.732;9.248;2022-09-03T07:47:57;4.53;;;2.73;;
7306;SDS011;3694;48.732;9.248;2022-09-03T07:50:23;4.03;;;2.10;;
7306;SDS011;3694;48.732;9.248;2022-09-03T07:52:54;5.93;;;2.43;;
7306;SDS011;3694;48.732;9.248;2022-09-03T07:55:21;2.70;;;2.50;;
7306;SDS011;3694;48.732;9.248;2022-09-03T07:57:47;3.67;;;2.27;;
7306;SDS011;3694;48.732;9.248;2022-09-03T08:00:13;4.17;;;2.47;;
7306;SDS011;3694;48.732;9.248;2022-09-03T08:02:39;4.63;;;2.47;;
7306;SDS011;3694;48.732;9.248;2022-09-03T08:05:05;2.40;;;2.20;;
7306;SDS011;3694;48.732;9.248;2022-09-03T08:07:31;3.80;;;2.30;;
7306;SDS011;3694;48.732;9.248;2022-09-03T08:09:57;2.73;;;2.53;;
7306;SDS011;3694;48.732;9.248;2022-09-03T08:12:23;3.00;;;2.27;;
7306;SDS011;3694;48.732;9.248;2022-09-03T08:14:48;3.30;;;2.47;;
7306;SDS011;3694;48.732;9.248;2022-09-03T08:17:14;3.17;;;2.57;;
7306;SDS011;3694;48.732;9.248;2022-09-03T08:19:39;2.70;;;2.50;;
7306;SDS011;3694;48.732;9.248;2022-09-03T08:22:06;3.77;;;2.50;;
7306;SDS011;3694;48.732;9.248;2022-09-03T08:24:32;2.87;;;2.57;;
7306;SDS011;3694;48.732;9.248;2022-09-03T08:26:58;2.53;;;2.27;;
7306;SDS011;3694;48.732;9.248;2022-09-03T08:29:24;2.80;;;2.13;;
7306;SDS011;3694;48.732;9.248;2022-09-03T08:31:51;3.23;;;2.33;;
7306;SDS011;3694;48.732;9.248;2022-09-03T08:34:17;3.63;;;3.33;;
7306;SDS011;3694;48.732;9.248;2022-09-03T08:36:43;3.13;;;2.92;;
7306;SDS011;3694;48.732;9.248;2022-09-03T08:39:11;2.88;;;2.50;;
7306;SDS011;3694;48.732;9.248;2022-09-03T08:41:51;2.67;;;2.47;;
7306;SDS011;3694;48.732;9.248;2022-09-03T08:47:28;3.00;;;2.63;;
7306;SDS011;3694;48.732;9.248;2022-09-03T08:52:49;2.67;;;2.45;;
7306;SDS011;3694;48.732;9.248;2022-09-03T08:55:24;2.72;;;2.53;;
7306;SDS011;3694;48.732;9.248;2022-09-03T08:57:53;2.78;;;2.60;;
7306;SDS011;3694;48.732;9.248;2022-09-03T09:00:28;3.85;;;2.40;;
7306;SDS011;3694;48.732;9.248;2022-09-03T09:06:06;3.38;;;2.70;;
7306;SDS011;3694;48.732;9.248;2022-09-03T09:09:03;3.40;;;2.55;;
7306;SDS011;3694;48.732;9.248;2022-09-03T09:22:50;2.55;;;2.35;;
7306;SDS011;3694;48.732;9.248;2022-09-03T09:25:22;2.97;;;2.78;;
7306;SDS011;3694;48.732;9.248;2022-09-03T09:27:51;5.82;;;2.80;;
7306;SDS011;3694;48.732;9.248;2022-09-03T09:30:27;2.38;;;2.20;;
7306;SDS011;3694;48.732;9.248;2022-09-03T09:32:54;2.95;;;2.70;;
7306;SDS011;3694;48.732;9.248;2022-09-03T09:35:20;3.03;;;2.83;;
7306;SDS011;3694;48.732;9.248;2022-09-03T09:37:50;3.00;;;2.70;;
7306;SDS011;3694;48.732;9.248;2022-09-03T09:40:30;2.53;;;2.33;;
7306;SDS011;3694;48.732;9.248;2022-09-03T09:43:05;3.58;;;2.53;;
7306;SDS011;3694;48.732;9.248;2022-09-03T09:45:40;3.55;;;2.22;;
7306;SDS011;3694;48.732;9.248;2022-09-03T09:51:06;2.95;;;2.55;;
7306;SDS011;3694;48.732;9.248;2022-09-03T09:53:38;3.08;;;2.05;;
7306;SDS011;3694;48.732;9.248;2022-09-03T09:56:04;2.85;;;2.53;;
7306;SDS011;3694;48.732;9.248;2022-09-03T09:58:31;3.35;;;2.80;;
7306;SDS011;3694;48.732;9.248;2022-09-03T10:03:39;2.92;;;2.50;;
7306;SDS011;3694;48.732;9.248;2022-09-03T10:06:13;4.30;;;2.60;;
7306;SDS011;3694;48.732;9.248;2022-09-03T10:09:06;3.53;;;3.15;;
7306;SDS011;3694;48.732;9.248;2022-09-03T10:11:33;4.97;;;3.10;;
7306;SDS011;3694;48.732;9.248;2022-09-03T10:14:02;3.80;;;3.40;;
7306;SDS011;3694;48.732;9.248;2022-09-03T10:16:34;4.93;;;3.00;;
7306;SDS011;3694;48.732;9.248;2022-09-03T10:19:17;4.53;;;3.73;;
7306;SDS011;3694;48.732;9.248;2022-09-03T10:24:48;3.60;;;3.30;;
7306;SDS011;3694;48.732;9.248;2022-09-03T10:27:15;3.87;;;3.27;;
7306;SDS011;3694;48.732;9.248;2022-09-03T10:29:42;3.33;;;3.00;;
7306;SDS011;3694;48.732;9.248;2022-09-03T10:32:24;5.20;;;3.00;;
7306;SDS011;3694;48.732;9.248;2022-09-03T10:35:28;4.37;;;2.83;;
7306;SDS011;3694;48.732;9.248;2022-09-03T10:38:08;5.63;;;3.23;;
7306;SDS011;3694;48.732;9.248;2022-09-03T10:40:39;3.30;;;2.90;;
7306;SDS011;3694;48.732;9.248;2022-09-03T10:46:08;3.53;;;3.20;;
7306;SDS011;3694;48.732;9.248;2022-09-03T10:51:57;3.93;;;3.00;;
7306;SDS011;3694;48.732;9.248;2022-09-03T10:54:52;3.00;;;2.80;;
7306;SDS011;3694;48.732;9.248;2022-09-03T11:00:20;3.20;;;2.90;;
7306;SDS011;3694;48.732;9.248;2022-09-03T11:11:41;3.70;;;3.10;;
7306;SDS011;3694;48.732;9.248;2022-09-03T11:14:42;3.13;;;2.77;;
7306;SDS011;3694;48.732;9.248;2022-09-03T11:17:12;4.43;;;3.27;;
7306;SDS011;3694;48.732;9.248;2022-09-03T11:19:49;3.60;;;3.30;;
7306;SDS011;3694;48.732;9.248;2022-09-03T11:22:20;5.27;;;3.10;;
7306;SDS011;3694;48.732;9.248;2022-09-03T11:24:49;3.13;;;2.87;;
7306;SDS011;3694;48.732;9.248;2022-09-03T11:30:10;4.38;;;2.90;;
7306;SDS011;3694;48.732;9.248;2022-09-03T11:35:14;3.00;;;2.80;;
7306;SDS011;3694;48.732;9.248;2022-09-03T11:37:49;3.00;;;2.70;;
7306;SDS011;3694;48.732;9.248;2022-09-03T11:40:28;5.20;;;4.70;;
7306;SDS011;3694;48.732;9.248;2022-09-03T11:43:12;3.63;;;2.83;;
7306;SDS011;3694;48.732;9.248;2022-09-03T11:46:05;3.00;;;2.80;;
7306;SDS011;3694;48.732;9.248;2022-09-03T11:56:38;3.00;;;2.70;;
7306;SDS011;3694;48.732;9.248;2022-09-03T12:01:37;3.10;;;2.80;;
7306;SDS011;3694;48.732;9.248;2022-09-03T12:04:29;5.57;;;5.07;;
7306;SDS011;3694;48.732;9.248;2022-09-03T12:12:44;4.00;;;3.40;;
7306;SDS011;3694;48.732;9.248;2022-09-03T12:18:10;4.40;;;3.97;;
7306;SDS011;3694;48.732;9.248;2022-09-03T12:20:44;4.00;;;3.70;;
7306;SDS011;3694;48.732;9.248;2022-09-03T12:23:12;3.47;;;3.17;;
7306;SDS011;3694;48.732;9.248;2022-09-03T12:25:49;3.97;;;2.17;;
7306;SDS011;3694;48.732;9.248;2022-09-03T12:28:18;2.57;;;1.37;;
7306;SDS011;3694;48.732;9.248;2022-09-03T12:30:47;2.30;;;1.47;;
7306;SDS011;3694;48.732;9.248;2022-09-03T12:33:15;2.37;;;1.50;;
7306;SDS011;3694;48.732;9.248;2022-09-03T12:35:42;3.63;;;1.23;;
7306;SDS011;3694;48.732;9.248;2022-09-03T12:38:07;3.30;;;1.40;;
7306;SDS011;3694;48.732;9.248;2022-09-03T12:40:39;1.87;;;1.50;;
7306;SDS011;3694;48.732;9.248;2022-09-03T12:43:14;1.70;;;1.50;;
7306;SDS011;3694;48.732;9.248;2022-09-03T12:45:42;4.30;;;1.67;;
7306;SDS011;3694;48.732;9.248;2022-09-03T12:48:12;2.90;;;1.97;;
7306;SDS011;3694;48.732;9.248;2022-09-03T12:50:43;2.50;;;1.70;;
7306;SDS011;3694;48.732;9.248;2022-09-03T12:53:11;2.23;;;1.70;;
7306;SDS011;3694;48.732;9.248;2022-09-03T12:58:12;3.23;;;2.10;;
7306;SDS011;3694;48.732;9.248;2022-09-03T13:00:46;2.70;;;1.80;;
7306;SDS011;3694;48.732;9.248;2022-09-03T13:03:44;3.53;;;1.70;;
7306;SDS011;3694;48.732;9.248;2022-09-03T13:06:13;7.57;;;2.23;;
7306;SDS011;3694;48.732;9.248;2022-09-03T13:09:17;3.57;;;2.23;;
7306;SDS011;3694;48.732;9.248;2022-09-03T13:11:38;4.43;;;2.10;;
7306;SDS011;3694;48.732;9.248;2022-09-03T13:14:04;3.47;;;1.83;;
7306;SDS011;3694;48.732;9.248;2022-09-03T13:22:06;3.43;;;1.53;;
7306;SDS011;3694;48.732;9.248;2022-09-03T13:30:09;2.43;;;1.87;;
7306;SDS011;3694;48.732;9.248;2022-09-03T13:35:36;3.00;;;1.63;;
7306;SDS011;3694;48.732;9.248;2022-09-03T13:46:47;2.70;;;1.80;;
7306;SDS011;3694;48.732;9.248;2022-09-03T13:49:27;2.43;;;1.80;;
7306;SDS011;3694;48.732;9.248;2022-09-03T13:52:36;4.10;;;1.90;;
7306;SDS011;3694;48.732;9.248;2022-09-03T13:55:18;3.03;;;1.80;;
7306;SDS011;3694;48.732;9.248;2022-09-03T13:57:52;4.07;;;2.20;;
7306;SDS011;3694;48.732;9.248;2022-09-03T14:00:24;2.57;;;1.87;;
7306;SDS011;3694;48.732;9.248;2022-09-03T14:08:21;4.10;;;1.50;;
7306;SDS011;3694;48.732;9.248;2022-09-03T14:11:04;2.80;;;1.50;;
7306;SDS011;3694;48.732;9.248;2022-09-03T14:14:06;1.60;;;1.50;;
7306;SDS011;3694;48.732;9.248;2022-09-03T14:19:57;2.53;;;1.37;;
7306;SDS011;3694;48.732;9.248;2022-09-03T14:25:19;1.60;;;1.40;;
7306;SDS011;3694;48.732;9.248;2022-09-03T14:27:46;2.97;;;1.70;;
7306;SDS011;3694;48.732;9.248;2022-09-03T14:32:46;1.47;;;1.30;;
7306;SDS011;3694;48.732;9.248;2022-09-03T14:38:14;1.90;;;1.70;;
7306;SDS011;3694;48.732;9.248;2022-09-03T14:41:05;1.67;;;1.57;;
7306;SDS011;3694;48.732;9.248;2022-09-03T14:43:58;1.47;;;1.17;;
7306;SDS011;3694;48.732;9.248;2022-09-03T14:46:57;2.97;;;1.43;;
7306;SDS011;3694;48.732;9.248;2022-09-03T14:49:48;1.90;;;1.60;;
7306;SDS011;3694;48.732;9.248;2022-09-03T14:57:47;1.33;;;1.23;;
7306;SDS011;3694;48.732;9.248;2022-09-03T15:14:34;1.97;;;1.30;;
7306;SDS011;3694;48.732;9.248;2022-09-03T15:20:17;1.53;;;1.30;;
7306;SDS011;3694;48.732;9.248;2022-09-03T15:22:56;1.30;;;1.17;;
7306;SDS011;3694;48.732;9.248;2022-09-03T15:33:47;2.70;;;0.90;;
7306;SDS011;3694;48.732;9.248;2022-09-03T15:36:25;1.83;;;1.03;;
7306;SDS011;3694;48.732;9.248;2022-09-03T15:38:59;0.97;;;0.90;;
7306;SDS011;3694;48.732;9.248;2022-09-03T15:44:00;1.43;;;1.10;;
7306;SDS011;3694;48.732;9.248;2022-09-03T15:46:38;1.10;;;1.10;;
7306;SDS011;3694;48.732;9.248;2022-09-03T15:49:22;1.50;;;1.40;;
7306;SDS011;3694;48.732;9.248;2022-09-03T15:51:58;1.43;;;1.17;;
7306;SDS011;3694;48.732;9.248;2022-09-03T15:57:04;2.00;;;1.40;;
7306;SDS011;3694;48.732;9.248;2022-09-03T15:59:40;1.20;;;1.17;;
7306;SDS011;3694;48.732;9.248;2022-09-03T16:02:17;1.97;;;1.80;;
7306;SDS011;3694;48.732;9.248;2022-09-03T16:05:03;1.77;;;1.50;;
7306;SDS011;3694;48.732;9.248;2022-09-03T16:07:56;2.10;;;1.63;;
7306;SDS011;3694;48.732;9.248;2022-09-03T16:16:30;1.77;;;1.60;;
7306;SDS011;3694;48.732;9.248;2022-09-03T16:19:18;2.93;;;1.30;;
7306;SDS011;3694;48.732;9.248;2022-09-03T16:21:56;1.50;;;1.40;;
7306;SDS011;3694;48.732;9.248;2022-09-03T16:27:06;1.70;;;1.60;;
7306;SDS011;3694;48.732;9.248;2022-09-03T16:29:39;2.50;;;2.30;;
7306;SDS011;3694;48.732;9.248;2022-09-03T16:43:14;1.83;;;1.73;;
7306;SDS011;3694;48.732;9.248;2022-09-03T16:54:18;1.87;;;1.77;;
7306;SDS011;3694;48.732;9.248;2022-09-03T17:00:00;1.67;;;1.50;;
7306;SDS011;3694;48.732;9.248;2022-09-03T17:08:45;3.80;;;1.70;;
7306;SDS011;3694;48.732;9.248;2022-09-03T17:19:52;2.10;;;1.90;;
7306;SDS011;3694;48.732;9.248;2022-09-03T17:22:35;2.53;;;2.03;;
7306;SDS011;3694;48.732;9.248;2022-09-03T17:25:07;1.90;;;1.80;;
7306;SDS011;3694;48.732;9.248;2022-09-03T17:31:41;2.47;;;1.70;;
7306;SDS011;3694;48.732;9.248;2022-09-03T17:34:13;3.40;;;2.00;;
7306;SDS011;3694;48.732;9.248;2022-09-03T17:37:20;2.37;;;2.17;;
7306;SDS011;3694;48.732;9.248;2022-09-03T17:40:20;2.37;;;2.17;;
7306;SDS011;3694;48.732;9.248;2022-09-03T17:45:40;2.50;;;2.30;;
7306;SDS011;3694;48.732;9.248;2022-09-03T17:48:37;2.37;;;2.10;;
7306;SDS011;3694;48.732;9.248;2022-09-03T17:59:56;3.13;;;2.57;;
7306;SDS011;3694;48.732;9.248;2022-09-03T18:02:30;3.30;;;2.40;;
7306;SDS011;3694;48.732;9.248;2022-09-03T18:10:23;3.37;;;2.60;;
7306;SDS011;3694;48.732;9.248;2022-09-03T18:15:48;3.10;;;2.80;;
7306;SDS011;3694;48.732;9.248;2022-09-03T18:18:35;3.27;;;2.97;;
7306;SDS011;3694;48.732;9.248;2022-09-03T18:21:09;3.43;;;2.80;;
7306;SDS011;3694;48.732;9.248;2022-09-03T18:26:51;4.40;;;3.53;;
7306;SDS011;3694;48.732;9.248;2022-09-03T18:32:35;4.00;;;2.83;;
7306;SDS011;3694;48.732;9.248;2022-09-03T18:35:19;3.70;;;3.40;;
7306;SDS011;3694;48.732;9.248;2022-09-03T18:38:04;4.07;;;3.67;;
7306;SDS011;3694;48.732;9.248;2022-09-03T18:40:53;7.57;;;4.63;;
7306;SDS011;3694;48.732;9.248;2022-09-03T18:43:49;5.90;;;5.20;;
7306;SDS011;3694;48.732;9.248;2022-09-03T18:47:06;5.30;;;4.40;;
7306;SDS011;3694;48.732;9.248;2022-09-03T18:50:12;6.27;;;5.67;;
7306;SDS011;3694;48.732;9.248;2022-09-03T19:09:08;5.93;;;5.13;;
7306;SDS011;3694;48.732;9.248;2022-09-03T19:15:19;6.33;;;5.70;;
7306;SDS011;3694;48.732;9.248;2022-09-03T19:24:04;6.67;;;5.97;;
7306;SDS011;3694;48.732;9.248;2022-09-03T19:32:36;9.40;;;8.47;;
7306;SDS011;3694;48.732;9.248;2022-09-03T19:35:29;6.00;;;5.50;;
7306;SDS011;3694;48.732;9.248;2022-09-03T19:38:29;6.87;;;6.00;;
7306;SDS011;3694;48.732;9.248;2022-09-03T19:41:46;7.23;;;5.83;;
7306;SDS011;3694;48.732;9.248;2022-09-03T19:47:39;7.17;;;6.40;;
7306;SDS011;3694;48.732;9.248;2022-09-03T19:50:44;8.47;;;5.63;;
7306;SDS011;3694;48.732;9.248;2022-09-03T19:53:43;7.80;;;6.00;;
7306;SDS011;3694;48.732;9.248;2022-09-03T19:56:29;7.73;;;6.37;;
7306;SDS011;3694;48.732;9.248;2022-09-03T19:59:18;6.77;;;6.07;;
7306;SDS011;3694;48.732;9.248;2022-09-03T20:02:06;8.93;;;6.27;;
7306;SDS011;3694;48.732;9.248;2022-09-03T20:04:56;6.67;;;6.07;;
7306;SDS011;3694;48.732;9.248;2022-09-03T20:07:43;7.93;;;6.60;;
7306;SDS011;3694;48.732;9.248;2022-09-03T20:10:29;13.03;;;10.30;;
7306;SDS011;3694;48.732;9.248;2022-09-03T20:13:10;11.00;;;9.90;;
7306;SDS011;3694;48.732;9.248;2022-09-03T20:15:41;11.10;;;9.87;;
7306;SDS011;3694;48.732;9.248;2022-09-03T20:18:19;11.20;;;10.20;;
7306;SDS011;3694;48.732;9.248;2022-09-03T20:23:58;9.57;;;8.40;;
7306;SDS011;3694;48.732;9.248;2022-09-03T20:26:57;7.00;;;6.40;;
7306;SDS011;3694;48.732;9.248;2022-09-03T20:37:44;8.23;;;5.23;;
7306;SDS011;3694;48.732;9.248;2022-09-03T20:51:54;6.77;;;5.87;;
7306;SDS011;3694;48.732;9.248;2022-09-03T20:54:33;8.47;;;7.67;;
7306;SDS011;3694;48.732;9.248;2022-09-03T20:57:14;10.47;;;8.67;;
7306;SDS011;3694;48.732;9.248;2022-09-03T21:00:03;10.50;;;7.97;;
7306;SDS011;3694;48.732;9.248;2022-09-03T21:14:11;9.40;;;7.70;;
7306;SDS011;3694;48.732;9.248;2022-09-03T21:17:02;8.47;;;7.30;;
7306;SDS011;3694;48.732;9.248;2022-09-03T21:20:09;8.10;;;7.30;;
7306;SDS011;3694;48.732;9.248;2022-09-03T21:26:14;9.00;;;8.03;;
7306;SDS011;3694;48.732;9.248;2022-09-03T21:28:33;8.77;;;7.87;;
7306;SDS011;3694;48.732;9.248;2022-09-03T21:31:06;10.40;;;6.90;;
7306;SDS011;3694;48.732;9.248;2022-09-03T21:33:57;8.63;;;7.60;;
7306;SDS011;3694;48.732;9.248;2022-09-03T21:36:33;8.90;;;7.63;;
7306;SDS011;3694;48.732;9.248;2022-09-03T21:39:08;10.00;;;7.23;;
7306;SDS011;3694;48.732;9.248;2022-09-03T21:41:39;8.33;;;6.90;;
7306;SDS011;3694;48.732;9.248;2022-09-03T21:49:22;6.20;;;5.60;;